CST,Max TemperatureF,Mean TemperatureF,Min TemperatureF,Max Dew PointF,MeanDew PointF,Min DewpointF,Max Humidity, Mean Humidity, Min Humidity, Max Sea Level PressureIn, Mean Sea Level PressureIn, Min Sea Level PressureIn, Max VisibilityMiles, Mean VisibilityMiles, Min VisibilityMiles, Max Wind SpeedMPH, Mean Wind SpeedMPH, Max Gust SpeedMPH,PrecipitationIn, CloudCover, Events, WindDirDegrees
2013-2-1,-2,-14,-25,-9,-23,-29,92,60,29,30.22,30.11,30.02,10,10,5,9,5,,0.00,4,,179
2013-2-2,3,-6,-16,1,-12,-29,100,70,25,30.15,30.05,29.96,10,9,1,16,5,,0.00,5,,241
2013-2-3,3,-2,-7,0,-8,-29,100,69,27,30.06,30.03,30.00,10,10,10,15,9,,0.00,4,,335
2013-2-4,17,5,-7,16,-2,-29,100,74,29,30.04,29.83,29.52,10,8,0,20,7,24,0.00,7,,184
2013-2-5,19,8,-2,18,2,-6,93,86,72,30.03,29.89,29.54,10,10,4,17,10,20,0.00,6,,311
2013-2-6,17,11,5,14,9,-2,93,84,72,30.13,29.99,29.92,10,7,0,16,9,,0.00,7,,92
2013-2-7,17,9,1,10,4,-2,100,85,67,30.29,30.24,30.14,10,10,1,10,7,,0.00,5,,39
2013-2-8,24,14,3,18,9,0,100,82,63,30.28,30.19,30.04,10,9,0,18,7,23,0.00,5,,148
2013-2-9,28,22,17,27,22,12,100,91,74,30.03,29.93,29.88,10,4,1,10,6,,0.00,8,,173
2013-2-10,28,27,26,25,25,25,93,91,86,29.89,29.89,29.88,5,5,5,6,6,,0.00,8,,93
2013-2-11,,,,,,,,,,,,,,,,,,,,,,
2013-2-12,26,22,17,21,17,10,86,80,73,29.77,29.73,29.69,10,10,10,13,10,,0.00,5,,223
2013-2-13,24,16,8,23,15,7,100,88,63,29.76,29.66,29.60,10,7,0,14,4,,0.00,3,,291
2013-2-14,17,9,0,10,3,-6,92,77,67,30.23,30.05,29.77,10,10,10,18,11,,0.00,3,,334
2013-2-15,8,2,-5,3,-3,-15,100,83,65,30.34,30.27,30.19,10,10,7,13,6,,0.00,3,,283
2013-2-16,17,4,-9,12,2,-11,100,87,68,30.19,30.07,29.93,10,7,0,17,5,,0.00,6,,143
2013-2-17,32,24,17,27,21,10,93,83,73,29.92,29.64,29.49,10,9,2,22,17,26,0.00,7,,174
2013-2-18,28,14,-2,27,6,-8,100,81,66,30.06,29.75,29.47,10,3,0,32,16,39,0.06,7,,326
2013-2-19,-2,-8,-16,-8,-18,-29,92,63,27,30.46,30.30,30.07,10,9,4,23,17,26,0.00,1,,331
2013-2-20,8,-3,-14,-4,-13,-29,100,60,35,30.48,30.43,30.36,10,10,10,14,9,,0.00,0,,78
2013-2-21,17,8,-2,5,-3,-15,72,61,53,30.43,30.34,30.19,10,10,10,12,9,,0.00,0,,82
2013-2-22,23,16,8,19,11,0,100,83,62,30.19,30.01,29.90,10,8,0,9,6,,0.00,6,,39
2013-2-23,21,14,8,19,15,7,100,92,85,29.94,29.88,29.85,10,9,0,7,2,,0.00,8,,194
2013-2-24,21,12,3,18,11,1,100,87,68,30.03,30.00,29.94,10,7,0,13,4,,0.00,5,,179
2013-2-25,26,18,10,21,15,9,100,90,74,30.04,30.01,29.98,10,7,0,13,9,,0.00,3,,187
2013-2-26,17,10,6,16,7,3,100,92,85,30.05,30.02,29.98,10,5,0,12,6,,0.00,3,,177
2013-2-27,30,19,8,21,16,5,93,80,69,30.20,30.13,30.09,10,8,3,17,8,,0.00,2,,341
2013-2-28,26,22,19,21,14,10,80,69,59,30.32,30.27,30.19,10,10,10,14,10,,0.00,8,,21